Marble Hill, Georgia
Current Conditions -  °F | °C
As of 1:55 AM on Monday 22 Dec 2014 (Local Time) from KCNI Reporting Station
Overcast Overcast  
Wind Chill: 40°   Ceiling: 1100
Heat Index: 45°   Visibility: 7mi
Dew Point: 37°   Wind: 8mph
Humidity: 76%   Direction: 70°ENE
Pressure: 30.07"   Gusts: NA
Location:  34.45°N, 84.26°W
Report Text: KCNI 220655Z AUTO 07007KT 7SM OVC011 07/03 A3007 RMK AO2
Loading
Personal Weather Stations






























Interactive Weather Map New forecast layout! Learn more

10-Day Weather Forecast

Advertisements
Track Severe Weather on mobile